Terminal Aerodrome Forecast
Issued by NWS Wichita, KS

Home | Current Version | Previous Version | Text Only | Print | Product List | Glossary Off
Versions: 1 2 3 4 5 6 7 8 9 10 11 12 13 14 15 16 17

000
FTUS43 KICT 240900 AAA
TAFICT
TAF AMD
KICT 240915Z 2409/2506 17005KT P6SM BKN300
     FM241100 18005KT 5SM BR BKN300
     FM241400 19007KT P6SM SCT015 BKN300
     FM241530 19009KT P6SM BKN300=

USA.gov is the U.S. government's official web portal to all federal, state and local government web resources and services.